Snow/Ice From: 16-12-2017 16:00 Until: 17-12-2017 16:00 warning for: Snow/Ice Level: Yellow info button

Although rather usual in this region, locally or potentially dangerous phenomena are expected. (such as local winds, summer thunderstorms, rising streams or high waves) Be aware and pay attention to the latest weather updates, especially if you carry out activities exposed to weather or close to a stream or shoreline. 


Meteo18 Weather Cam more information Meteo18 Weather Cam


Thunder radar more information blitzortung!


warning for Snow/Ice more information rain snow radar


Visit our other weather sites:

Template documentation
and downloads

And another site



Weather Underground History page Text

Daily Summary for April 8, 2016 Units:  Metric    English   Both
« Previous Day
Next Day »
Daily Weekly Monthly Yearly Custom
  High: Low: Average:
Temperature: 11.3 °C -0.9 °C 5.3 °C
Dew Point: 6.5 °C -1.5 °C 2.5 °C
Humidity: 98 % 57 % 84 %
Wind Speed: 8.0 km/h 0.0 km/h 0.6 km/h
Wind Gust: 12.9 km/h - -
Wind:- - East
Pressure: 1015.1 hPa 1011.1 hPa -
Precipitation: 0.3 mm    
Historical Graphs
 
 
Tabular Data for April 8, 2016
Time Temperature Dew Point Pressure Wind Wind Speed Wind Gust Humidity Rainfall Rate (Hourly)
00:02 1.5 °C 0.5 °C 1015.1 hPa Calm     93 % 0.0 mm
00:07 1.4 °C 0.4 °C 1015.1 hPa Calm     93 % 0.0 mm
00:12 1.3 °C 0.3 °C 1015.1 hPa Calm     93 % 0.0 mm
00:17 1.2 °C 0.2 °C 1015.1 hPa Calm     93 % 0.0 mm
00:22 1.1 °C 0.1 °C 1015.1 hPa Calm     93 % 0.0 mm
00:27 1.0 °C 0.0 °C 1015.1 hPa Calm     93 % 0.0 mm
00:32 0.9 °C 0.0 °C 1015.1 hPa Calm     94 % 0.0 mm
00:37 1.0 °C 0.1 °C 1015.1 hPa Calm     94 % 0.0 mm
00:42 1.0 °C 0.1 °C 1015.1 hPa Calm     94 % 0.0 mm
00:47 1.0 °C 0.1 °C 1015.1 hPa Calm     94 % 0.0 mm
00:52 0.9 °C 0.0 °C 1015.1 hPa Calm     94 % 0.0 mm
00:57 0.8 °C -0.1 °C 1015.1 hPa Calm     94 % 0.0 mm
01:02 0.7 °C -0.2 °C 1015.1 hPa Calm     94 % 0.0 mm
01:07 0.7 °C 0.0 °C 1015.1 hPa Calm     95 % 0.0 mm
01:12 0.9 °C 0.2 °C 1015.1 hPa Calm     95 % 0.0 mm
01:17 1.1 °C 0.4 °C 1015.1 hPa Calm     95 % 0.0 mm
01:22 1.2 °C 0.5 °C 1014.8 hPa Calm     95 % 0.0 mm
01:27 1.2 °C 0.5 °C 1014.8 hPa Calm     95 % 0.0 mm
01:32 1.1 °C 0.4 °C 1014.8 hPa Calm     95 % 0.0 mm
01:37 1.2 °C 0.5 °C 1014.8 hPa Calm     95 % 0.0 mm
01:42 1.3 °C 0.7 °C 1014.8 hPa Calm     96 % 0.0 mm
01:52 1.3 °C 0.6 °C 1014.8 hPa Calm     95 % 0.0 mm
01:57 1.3 °C 0.6 °C 1014.8 hPa Calm     95 % 0.0 mm
02:02 1.2 °C 0.5 °C 1014.8 hPa Calm     95 % 0.0 mm
02:07 1.1 °C 0.4 °C 1014.8 hPa Calm     95 % 0.0 mm
02:12 1.2 °C 0.5 °C 1014.8 hPa Calm     95 % 0.0 mm
02:17 1.3 °C 0.6 °C 1014.4 hPa Calm     95 % 0.0 mm
02:22 1.4 °C 0.7 °C 1014.4 hPa Calm     95 % 0.0 mm
02:27 1.5 °C 0.8 °C 1014.4 hPa Calm     95 % 0.0 mm
02:32 1.5 °C 0.8 °C 1014.4 hPa Calm     95 % 0.0 mm
02:37 1.4 °C 0.5 °C 1014.4 hPa Calm     94 % 0.0 mm
02:42 1.4 °C 0.5 °C 1014.4 hPa Calm     94 % 0.0 mm
02:47 1.3 °C 0.4 °C 1014.4 hPa Calm     94 % 0.0 mm
02:52 1.2 °C 0.3 °C 1014.4 hPa Calm     94 % 0.0 mm
02:57 1.5 °C 0.8 °C 1014.4 hPa Calm     95 % 0.0 mm
03:02 1.6 °C 0.9 °C 1014.4 hPa Calm     95 % 0.0 mm
03:07 1.6 °C 0.7 °C 1014.4 hPa Calm     94 % 0.0 mm
03:12 1.6 °C 0.9 °C 1014.4 hPa Calm     95 % 0.0 mm
03:17 1.7 °C 1.0 °C 1014.4 hPa Calm     95 % 0.0 mm
03:22 1.8 °C 1.1 °C 1014.4 hPa Calm   1.6 km/h 95 % 0.0 mm
03:32 1.8 °C 1.1 °C 1014.4 hPa Calm     95 % 0.0 mm
03:37 1.9 °C 1.0 °C 1014.4 hPa Calm     94 % 0.0 mm
03:42 1.9 °C 1.2 °C 1014.1 hPa Calm     95 % 0.0 mm
03:47 2.1 °C 1.2 °C 1014.1 hPa Calm   1.6 km/h 94 % 0.0 mm
03:52 1.9 °C 1.0 °C 1014.1 hPa Calm   1.6 km/h 94 % 0.0 mm
03:57 1.8 °C 0.9 °C 1014.1 hPa Calm   1.6 km/h 94 % 0.0 mm
04:07 1.4 °C 0.4 °C 1014.1 hPa Calm     93 % 0.0 mm
04:12 1.3 °C 0.4 °C 1014.1 hPa Calm     94 % 0.0 mm
04:17 1.3 °C 0.4 °C 1014.1 hPa Calm     94 % 0.0 mm
04:22 1.1 °C 0.2 °C 1014.1 hPa Calm     94 % 0.0 mm
04:27 0.9 °C 0.0 °C 1014.1 hPa Calm     94 % 0.0 mm
04:32 0.8 °C -0.1 °C 1014.1 hPa Calm     94 % 0.0 mm
04:37 0.7 °C -0.2 °C 1014.1 hPa Calm     94 % 0.0 mm
04:42 0.6 °C -0.3 °C 1014.1 hPa Calm     94 % 0.0 mm
04:47 0.6 °C -0.1 °C 1014.1 hPa Calm     95 % 0.0 mm
04:52 0.6 °C -0.1 °C 1014.1 hPa Calm     95 % 0.0 mm
04:57 0.7 °C 0.0 °C 1014.1 hPa Calm     95 % 0.0 mm
05:02 0.7 °C 0.0 °C 1014.1 hPa Calm     95 % 0.0 mm
05:07 0.7 °C 0.0 °C 1014.1 hPa Calm     95 % 0.0 mm
05:12 0.7 °C 0.0 °C 1014.1 hPa Calm   1.6 km/h 95 % 0.0 mm
05:17 0.7 °C 0.0 °C 1014.1 hPa Calm   1.6 km/h 95 % 0.0 mm
05:22 0.6 °C -0.1 °C 1014.1 hPa Calm     95 % 0.0 mm
05:27 0.4 °C -0.5 °C 1014.1 hPa Calm     94 % 0.0 mm
05:32 0.2 °C -0.7 °C 1013.8 hPa Calm     94 % 0.0 mm
05:37 0.0 °C -0.7 °C 1013.8 hPa Calm     95 % 0.0 mm
05:42 -0.1 °C -0.8 °C 1013.8 hPa Calm   1.6 km/h 95 % 0.0 mm
05:47 -0.1 °C -0.8 °C 1014.1 hPa Calm   1.6 km/h 95 % 0.0 mm
05:52 -0.1 °C -0.8 °C 1013.8 hPa Calm   1.6 km/h 95 % 0.0 mm
05:57 -0.2 °C -0.9 °C 1014.1 hPa Calm   1.6 km/h 95 % 0.0 mm
06:02 -0.2 °C -0.9 °C 1014.1 hPa Calm     95 % 0.0 mm
06:07 -0.2 °C -0.8 °C 1014.1 hPa Calm     96 % 0.0 mm
06:12 -0.3 °C -1.0 °C 1014.1 hPa Calm     95 % 0.0 mm
06:17 -0.3 °C -0.9 °C 1014.1 hPa Calm     96 % 0.0 mm
06:22 -0.4 °C -1.1 °C 1013.8 hPa Calm     95 % 0.0 mm
06:27 -0.6 °C -1.3 °C 1013.8 hPa Calm     95 % 0.0 mm
06:37 -0.8 °C -1.5 °C 1014.1 hPa Calm     95 % 0.0 mm
06:42 -0.8 °C -1.4 °C 1014.1 hPa Calm     96 % 0.0 mm
06:47 -0.7 °C -1.3 °C 1014.1 hPa Calm     96 % 0.0 mm
06:52 -0.8 °C -1.5 °C 1014.1 hPa Calm     95 % 0.0 mm
06:57 -0.8 °C -1.4 °C 1014.1 hPa Calm     96 % 0.0 mm
07:02 -0.9 °C -1.5 °C 1014.1 hPa Calm     96 % 0.0 mm
07:07 -0.8 °C -1.4 °C 1014.1 hPa Calm     96 % 0.0 mm
07:12 -0.5 °C -0.9 °C 1014.1 hPa Calm     97 % 0.0 mm
07:17 -0.3 °C -0.7 °C 1014.1 hPa Calm     97 % 0.0 mm
07:22 -0.3 °C -0.7 °C 1014.1 hPa Calm     97 % 0.0 mm
07:27 -0.3 °C -0.9 °C 1014.1 hPa Calm     96 % 0.0 mm
07:32 -0.3 °C -0.9 °C 1014.1 hPa Calm     96 % 0.0 mm
07:37 -0.4 °C -1.0 °C 1014.1 hPa Calm     96 % 0.0 mm
07:42 -0.4 °C -1.0 °C 1014.1 hPa Calm     96 % 0.0 mm
07:47 -0.3 °C -0.7 °C 1014.1 hPa Calm     97 % 0.0 mm
07:52 -0.2 °C -0.6 °C 1014.1 hPa Calm     97 % 0.0 mm
07:57 0.0 °C -0.4 °C 1014.1 hPa Calm   1.6 km/h 97 % 0.0 mm
08:02 0.1 °C -0.3 °C 1014.1 hPa Calm   1.6 km/h 97 % 0.0 mm
08:07 0.1 °C -0.3 °C 1014.1 hPa Calm   1.6 km/h 97 % 0.0 mm
08:17 0.2 °C -0.2 °C 1014.1 hPa Calm     97 % 0.0 mm
08:22 0.4 °C 0.0 °C 1014.1 hPa Calm     97 % 0.0 mm
08:27 0.8 °C 0.4 °C 1014.1 hPa Calm   1.6 km/h 97 % 0.0 mm
08:32 0.9 °C 0.5 °C 1014.1 hPa Calm   1.6 km/h 97 % 0.0 mm
08:37 1.1 °C 0.7 °C 1014.1 hPa Calm   1.6 km/h 97 % 0.0 mm
08:42 1.5 °C 1.1 °C 1014.1 hPa Calm   1.6 km/h 97 % 0.0 mm
08:47 1.8 °C 1.4 °C 1014.1 hPa Calm     97 % 0.0 mm
08:52 2.1 °C 1.8 °C 1014.1 hPa Calm   1.6 km/h 98 % 0.0 mm
08:57 2.4 °C 2.1 °C 1013.8 hPa Calm   1.6 km/h 98 % 0.0 mm
09:02 2.6 °C 2.3 °C 1014.1 hPa Calm   1.6 km/h 98 % 0.0 mm
09:12 3.3 °C 3.0 °C 1013.8 hPa Calm   1.6 km/h 98 % 0.3 mm
09:17 3.5 °C 3.1 °C 1013.8 hPa Calm   1.6 km/h 97 % 0.3 mm
09:22 3.5 °C 2.9 °C 1013.8 hPa Calm   3.2 km/h 96 % 0.3 mm
09:27 3.7 °C 3.1 °C 1013.8 hPa Calm   3.2 km/h 96 % 0.3 mm
09:32 3.9 °C 3.3 °C 1014.1 hPa Calm   3.2 km/h 96 % 0.3 mm
09:37 4.3 °C 3.7 °C 1013.8 hPa Calm   3.2 km/h 96 % 0.3 mm
09:42 4.7 °C 4.1 °C 1013.8 hPa Calm   3.2 km/h 96 % 0.3 mm
09:47 5.3 °C 4.7 °C 1013.8 hPa Calm   1.6 km/h 96 % 0.3 mm
09:52 6.0 °C 5.3 °C 1013.8 hPa Calm   1.6 km/h 95 % 0.3 mm
09:57 6.5 °C 5.4 °C 1014.1 hPa Calm   1.6 km/h 93 % 0.3 mm
10:02 7.4 °C 6.0 °C 1013.8 hPa West 1.6 km/h 1.6 km/h 91 % 0.3 mm
10:07 7.7 °C 6.2 °C 1013.8 hPa Calm   4.8 km/h 90 % 0.0 mm
10:12 7.9 °C 5.9 °C 1013.8 hPa Calm   4.8 km/h 87 % 0.0 mm
10:17 8.1 °C 6.1 °C 1013.8 hPa ESE 1.6 km/h 4.8 km/h 87 % 0.0 mm
10:22 8.3 °C 5.8 °C 1013.8 hPa Calm   3.2 km/h 84 % 0.0 mm
10:27 8.6 °C 5.9 °C 1013.8 hPa Calm   3.2 km/h 83 % 0.0 mm
10:32 8.6 °C 6.0 °C 1013.8 hPa NE 1.6 km/h 3.2 km/h 84 % 0.0 mm
10:37 8.4 °C 6.0 °C 1013.8 hPa Calm   6.4 km/h 85 % 0.0 mm
10:42 8.2 °C 6.0 °C 1013.8 hPa Calm   6.4 km/h 86 % 0.0 mm
10:47 8.1 °C 6.1 °C 1013.8 hPa Calm   6.4 km/h 87 % 0.0 mm
10:52 8.2 °C 6.5 °C 1014.1 hPa Calm   6.4 km/h 89 % 0.0 mm
11:02 8.3 °C 6.4 °C 1014.1 hPa WSW 1.6 km/h 3.2 km/h 88 % 0.0 mm
11:07 8.2 °C 6.2 °C 1014.1 hPa Calm   4.8 km/h 87 % 0.0 mm
11:17 8.3 °C 6.3 °C 1014.1 hPa WSW 1.6 km/h 4.8 km/h 87 % 0.0 mm
11:22 8.4 °C 6.2 °C 1014.1 hPa NNW 1.6 km/h 4.8 km/h 86 % 0.0 mm
11:27 8.4 °C 6.0 °C 1014.1 hPa Calm   4.8 km/h 85 % 0.0 mm
11:32 8.5 °C 6.1 °C 1014.1 hPa Calm   4.8 km/h 85 % 0.0 mm
11:37 8.4 °C 5.9 °C 1014.1 hPa Calm   4.8 km/h 84 % 0.0 mm
11:42 8.4 °C 6.2 °C 1014.1 hPa North 1.6 km/h 1.6 km/h 86 % 0.0 mm
11:47 8.3 °C 5.8 °C 1014.1 hPa Calm   4.8 km/h 84 % 0.0 mm
11:57 8.6 °C 5.9 °C 1014.1 hPa ENE 1.6 km/h 4.8 km/h 83 % 0.0 mm
12:02 8.8 °C 5.9 °C 1014.1 hPa Calm   6.4 km/h 82 % 0.0 mm
12:07 9.0 °C 5.9 °C 1014.1 hPa NE 3.2 km/h 6.4 km/h 81 % 0.0 mm
12:12 9.1 °C 6.0 °C 1014.1 hPa East 3.2 km/h 8.0 km/h 81 % 0.0 mm
12:17 9.2 °C 5.6 °C 1013.8 hPa Calm   8.0 km/h 78 % 0.0 mm
12:22 9.5 °C 5.7 °C 1013.8 hPa Calm   8.0 km/h 77 % 0.0 mm
12:32 9.8 °C 5.8 °C 1013.8 hPa ENE 4.8 km/h 6.4 km/h 76 % 0.0 mm
12:42 10.0 °C 6.2 °C 1013.8 hPa ENE 1.6 km/h 12.9 km/h 77 % 0.0 mm
12:47 10.2 °C 5.4 °C 1013.8 hPa NE 3.2 km/h 12.9 km/h 72 % 0.0 mm
12:52 10.6 °C 5.8 °C 1013.8 hPa ENE 6.4 km/h 6.4 km/h 72 % 0.0 mm
12:57 10.7 °C 5.7 °C 1013.8 hPa ENE 3.2 km/h 8.0 km/h 71 % 0.0 mm
13:02 10.7 °C 5.2 °C 1013.8 hPa NE 3.2 km/h 9.7 km/h 69 % 0.0 mm
13:07 11.2 °C 6.1 °C 1013.4 hPa NE 3.2 km/h 9.7 km/h 71 % 0.0 mm
13:12 11.1 °C 5.4 °C 1013.4 hPa Calm   9.7 km/h 68 % 0.0 mm
13:17 11.3 °C 5.6 °C 1013.4 hPa ENE 3.2 km/h 9.7 km/h 68 % 0.0 mm
13:22 11.3 °C 5.8 °C 1013.4 hPa ENE 3.2 km/h 9.7 km/h 69 % 0.0 mm
13:27 10.9 °C 3.7 °C 1013.1 hPa Calm   8.0 km/h 61 % 0.0 mm
13:32 10.9 °C 3.4 °C 1013.1 hPa Calm   9.7 km/h 60 % 0.0 mm
13:37 10.9 °C 3.9 °C 1013.1 hPa NE 1.6 km/h 9.7 km/h 62 % 0.0 mm
13:42 11.0 °C 5.5 °C 1013.1 hPa NE 8.0 km/h 8.0 km/h 69 % 0.0 mm
13:47 11.0 °C 3.8 °C 1013.1 hPa SE 1.6 km/h 8.0 km/h 61 % 0.0 mm
13:52 10.9 °C 4.4 °C 1013.1 hPa ENE 3.2 km/h 8.0 km/h 64 % 0.0 mm
13:57 10.7 °C 5.0 °C 1013.1 hPa ENE 3.2 km/h 8.0 km/h 68 % 0.0 mm
14:02 10.7 °C 5.0 °C 1012.8 hPa NE 3.2 km/h 12.9 km/h 68 % 0.0 mm
14:07 10.6 °C 4.5 °C 1012.8 hPa Calm   12.9 km/h 66 % 0.0 mm
14:17 10.3 °C 4.7 °C 1012.8 hPa Calm   6.4 km/h 68 % 0.0 mm
14:22 10.3 °C 4.9 °C 1012.8 hPa NNE 3.2 km/h 6.4 km/h 69 % 0.0 mm
14:27 10.4 °C 4.5 °C 1012.8 hPa Calm   6.4 km/h 67 % 0.0 mm
14:32 10.3 °C 4.7 °C 1012.8 hPa NE 1.6 km/h 4.8 km/h 68 % 0.0 mm
14:37 10.3 °C 5.1 °C 1012.8 hPa Calm   4.8 km/h 70 % 0.0 mm
14:42 10.5 °C 5.3 °C 1012.8 hPa NE 3.2 km/h 3.2 km/h 70 % 0.0 mm
14:47 10.5 °C 5.1 °C 1012.8 hPa ENE 3.2 km/h 8.0 km/h 69 % 0.0 mm
14:52 10.6 °C 4.9 °C 1012.8 hPa Calm   8.0 km/h 68 % 0.0 mm
14:57 10.6 °C 4.7 °C 1012.8 hPa NE 3.2 km/h 8.0 km/h 67 % 0.0 mm
15:02 10.4 °C 4.3 °C 1012.8 hPa NE 4.8 km/h 12.9 km/h 66 % 0.0 mm
15:07 10.2 °C 3.9 °C 1012.8 hPa NE 3.2 km/h 12.9 km/h 65 % 0.0 mm
15:12 10.2 °C 4.1 °C 1012.8 hPa East 4.8 km/h 12.9 km/h 66 % 0.0 mm
15:17 10.1 °C 3.8 °C 1012.8 hPa East 1.6 km/h 11.3 km/h 65 % 0.0 mm
15:22 10.1 °C 4.5 °C 1012.4 hPa ENE 3.2 km/h 11.3 km/h 68 % 0.0 mm
15:27 10.1 °C 4.2 °C 1012.4 hPa ENE 3.2 km/h 12.9 km/h 67 % 0.0 mm
15:32 10.1 °C 4.2 °C 1012.4 hPa NNE 1.6 km/h 12.9 km/h 67 % 0.0 mm
15:37 10.2 °C 4.1 °C 1012.4 hPa NE 1.6 km/h 12.9 km/h 66 % 0.0 mm
15:42 10.3 °C 4.4 °C 1012.1 hPa Calm   11.3 km/h 67 % 0.0 mm
15:47 10.3 °C 4.0 °C 1012.1 hPa NE 1.6 km/h 11.3 km/h 65 % 0.0 mm
15:52 10.4 °C 4.3 °C 1012.1 hPa NE 3.2 km/h 8.0 km/h 66 % 0.0 mm
16:02 10.4 °C 4.3 °C 1012.1 hPa Calm   8.0 km/h 66 % 0.0 mm
16:07 10.6 °C 4.3 °C 1012.1 hPa NE 1.6 km/h 6.4 km/h 65 % 0.0 mm
16:17 11.0 °C 4.9 °C 1012.1 hPa Calm   6.4 km/h 66 % 0.0 mm
16:22 11.3 °C 5.4 °C 1011.7 hPa Calm   4.8 km/h 67 % 0.0 mm
16:32 11.3 °C 4.5 °C 1011.7 hPa Calm   3.2 km/h 63 % 0.0 mm
16:37 11.3 °C 4.7 °C 1011.7 hPa Calm   3.2 km/h 64 % 0.0 mm
16:47 11.1 °C 4.1 °C 1011.7 hPa NE 3.2 km/h 6.4 km/h 62 % 0.0 mm
16:52 10.8 °C 3.8 °C 1011.7 hPa NE 1.6 km/h 6.4 km/h 62 % 0.0 mm
16:57 10.8 °C 4.3 °C 1011.7 hPa SE 1.6 km/h 6.4 km/h 64 % 0.0 mm
17:02 10.9 °C 3.9 °C 1011.7 hPa NE 6.4 km/h 8.0 km/h 62 % 0.0 mm
17:07 10.8 °C 3.3 °C 1011.4 hPa NE 1.6 km/h 11.3 km/h 60 % 0.0 mm
17:12 11.0 °C 4.9 °C 1011.4 hPa NE 3.2 km/h 11.3 km/h 66 % 0.0 mm
17:17 10.9 °C 3.9 °C 1011.4 hPa NE 1.6 km/h 11.3 km/h 62 % 0.0 mm
17:22 10.7 °C 4.4 °C 1011.4 hPa NE 1.6 km/h 6.4 km/h 65 % 0.0 mm
17:27 10.8 °C 3.8 °C 1011.4 hPa Calm   6.4 km/h 62 % 0.0 mm
17:32 10.8 °C 4.0 °C 1011.4 hPa NE 1.6 km/h 6.4 km/h 63 % 0.0 mm
17:37 10.8 °C 3.6 °C 1011.4 hPa Calm   11.3 km/h 61 % 0.0 mm
17:42 10.7 °C 3.5 °C 1011.4 hPa Calm   11.3 km/h 61 % 0.0 mm
17:47 10.7 °C 3.9 °C 1011.4 hPa Calm   11.3 km/h 63 % 0.0 mm
17:52 10.8 °C 3.8 °C 1011.4 hPa SW 1.6 km/h 8.0 km/h 62 % 0.0 mm
18:02 10.8 °C 3.3 °C 1011.4 hPa SE 1.6 km/h 4.8 km/h 60 % 0.0 mm
18:07 10.8 °C 3.6 °C 1011.4 hPa Calm   4.8 km/h 61 % 0.0 mm
18:12 10.8 °C 4.0 °C 1011.4 hPa Calm   4.8 km/h 63 % 0.0 mm
18:17 10.8 °C 3.3 °C 1011.1 hPa SW 3.2 km/h 3.2 km/h 60 % 0.0 mm
18:27 10.8 °C 3.1 °C 1011.1 hPa SSW 1.6 km/h 3.2 km/h 59 % 0.0 mm
18:32 10.9 °C 3.9 °C 1011.1 hPa Calm   3.2 km/h 62 % 0.0 mm
18:37 10.9 °C 3.2 °C 1011.1 hPa SSW 1.6 km/h 3.2 km/h 59 % 0.0 mm
18:52 11.0 °C 3.3 °C 1011.1 hPa Calm   3.2 km/h 59 % 0.0 mm
18:57 11.0 °C 2.8 °C 1011.1 hPa Calm   3.2 km/h 57 % 0.0 mm
19:02 11.1 °C 3.4 °C 1011.1 hPa Calm   3.2 km/h 59 % 0.0 mm
19:12 11.0 °C 4.0 °C 1011.1 hPa SW 3.2 km/h 4.8 km/h 62 % 0.0 mm
19:17 10.9 °C 4.1 °C 1011.1 hPa Calm   4.8 km/h 63 % 0.0 mm
19:22 10.8 °C 3.8 °C 1011.1 hPa Calm   4.8 km/h 62 % 0.0 mm
19:27 10.6 °C 4.1 °C 1011.1 hPa Calm   4.8 km/h 64 % 0.0 mm
19:32 10.3 °C 4.0 °C 1011.1 hPa Calm   3.2 km/h 65 % 0.0 mm
19:37 9.9 °C 3.6 °C 1011.1 hPa Calm   3.2 km/h 65 % 0.0 mm
19:42 9.7 °C 3.9 °C 1011.1 hPa Calm   3.2 km/h 67 % 0.0 mm
19:47 9.5 °C 3.7 °C 1011.1 hPa Calm   3.2 km/h 67 % 0.0 mm
19:52 9.3 °C 3.7 °C 1011.1 hPa Calm   1.6 km/h 68 % 0.0 mm
19:57 9.1 °C 4.3 °C 1011.1 hPa Calm   1.6 km/h 72 % 0.0 mm
20:02 8.7 °C 3.9 °C 1011.1 hPa Calm     72 % 0.0 mm
20:07 8.4 °C 4.0 °C 1011.1 hPa Calm     74 % 0.0 mm
20:12 8.2 °C 3.8 °C 1011.1 hPa Calm     74 % 0.0 mm
20:17 7.9 °C 3.7 °C 1011.1 hPa Calm     75 % 0.0 mm
20:22 7.7 °C 3.5 °C 1011.1 hPa Calm     75 % 0.0 mm
20:27 7.6 °C 3.5 °C 1011.1 hPa Calm     75 % 0.0 mm
20:32 7.5 °C 3.5 °C 1011.1 hPa Calm     76 % 0.0 mm
20:37 7.4 °C 3.4 °C 1011.4 hPa Calm     76 % 0.0 mm
20:42 7.3 °C 3.5 °C 1011.4 hPa Calm     77 % 0.0 mm
20:47 7.2 °C 4.0 °C 1011.4 hPa Calm     80 % 0.0 mm
20:52 7.1 °C 3.9 °C 1011.4 hPa Calm     80 % 0.0 mm
20:57 6.9 °C 4.0 °C 1011.4 hPa Calm     82 % 0.0 mm
21:02 6.6 °C 3.7 °C 1011.4 hPa Calm     82 % 0.0 mm
21:07 6.4 °C 3.4 °C 1011.4 hPa Calm     81 % 0.0 mm
21:12 6.2 °C 3.5 °C 1011.4 hPa Calm     83 % 0.0 mm
21:17 5.9 °C 3.6 °C 1011.7 hPa Calm     85 % 0.0 mm
21:22 5.8 °C 3.5 °C 1011.4 hPa Calm     85 % 0.0 mm
21:27 5.6 °C 3.3 °C 1011.4 hPa Calm     85 % 0.0 mm
21:32 5.4 °C 3.2 °C 1011.7 hPa Calm     86 % 0.0 mm
21:37 5.4 °C 3.4 °C 1011.4 hPa Calm     87 % 0.0 mm
21:42 5.2 °C 3.1 °C 1011.7 hPa Calm     86 % 0.0 mm
21:47 5.0 °C 2.9 °C 1011.7 hPa Calm     86 % 0.0 mm
21:52 4.7 °C 2.6 °C 1011.7 hPa Calm     86 % 0.0 mm
21:57 4.4 °C 2.4 °C 1011.7 hPa Calm     87 % 0.0 mm
22:02 4.2 °C 2.4 °C 1011.7 hPa Calm     88 % 0.0 mm
22:07 4.1 °C 2.5 °C 1011.7 hPa Calm     89 % 0.0 mm
22:12 3.9 °C 2.3 °C 1011.7 hPa Calm     89 % 0.0 mm
22:17 3.9 °C 2.4 °C 1011.7 hPa Calm     90 % 0.0 mm
22:22 4.1 °C 2.5 °C 1011.7 hPa Calm     89 % 0.0 mm
22:27 3.9 °C 2.1 °C 1011.7 hPa Calm     88 % 0.0 mm
22:32 4.0 °C 2.5 °C 1011.7 hPa Calm   1.6 km/h 90 % 0.0 mm
22:37 4.0 °C 2.2 °C 1011.4 hPa Calm   1.6 km/h 88 % 0.0 mm
22:42 3.8 °C 2.0 °C 1011.4 hPa Calm   1.6 km/h 88 % 0.0 mm
22:47 3.5 °C 1.9 °C 1011.4 hPa Calm     89 % 0.0 mm
22:52 3.3 °C 1.8 °C 1011.4 hPa Calm     90 % 0.0 mm
22:57 3.2 °C 1.7 °C 1011.4 hPa Calm     90 % 0.0 mm
23:02 3.1 °C 1.8 °C 1011.4 hPa Calm     91 % 0.0 mm
23:12 2.9 °C 1.6 °C 1011.4 hPa Calm     91 % 0.0 mm
23:17 2.7 °C 1.4 °C 1011.4 hPa Calm     91 % 0.0 mm
23:22 2.7 °C 1.5 °C 1011.4 hPa Calm     92 % 0.0 mm
23:27 2.8 °C 1.6 °C 1011.4 hPa Calm     92 % 0.0 mm
23:32 2.8 °C 1.6 °C 1011.4 hPa Calm     92 % 0.0 mm
23:37 2.9 °C 1.9 °C 1011.4 hPa Calm     93 % 0.0 mm
23:42 2.8 °C 1.5 °C 1011.4 hPa Calm     91 % 0.0 mm
23:47 2.7 °C 1.4 °C 1011.4 hPa Calm     91 % 0.0 mm
23:52 2.7 °C 1.5 °C 1011.4 hPa Calm     92 % 0.0 mm
23:57 2.6 °C 1.3 °C 1011.4 hPa Calm     91 % 0.0 mm
Meteo18
Compliments of Weather Underground - 4 mb

Script developed by  Jim McMurry - jmcmurry@mwt.net Adapted for the template by  Wim van der Kuil - Leuven-Template.eu

You find our weather info also at:

European Weather Network

Weather Underground

Equipment we use:

Weather-station
Davis Vue

Weather-program
Meteohub

Weather-server
Raspberry PI 2 B+

Provider
1 and 1

Davis Vue

Meteohub

Raspberry PI 2 B+

1 and 1